Terminal Aerodrome Forecast
Issued by NWS

Home | Current Version | Previous Version | Text Only | Print | Product List | Glossary On
Versions: 1 2 3 4 5 6 7 8 9 10 11 12 13 14 15 16 17 18
000
FTUS43 KPAH 221139
TAFOWB
TAF
KOWB 221139Z 2212/2312 10008KT 5SM -SHRA BR BKN008 OVC023
     FM221800 14007KT P6SM VCSH BKN011 OVC023
     FM230000 15005KT 4SM -SHRA BR OVC015
      TEMPO 2308/2310 19011KT 3SM -DZ BR OVC007=

USA.gov is the U.S. government's official web portal to all federal, state and local government web resources and services.